Ripley, Maine
Current Conditions -  °F | °C
As of 2:53 PM on Thursday 27 Nov 2014 (Local Time) from KBGR Reporting Station
Overcast Overcast  
Wind Chill: 21°   Ceiling: 3300
Heat Index: 31°   Visibility: 10mi
Dew Point: 23°   Wind: 13mph
Humidity: 72%   Direction: 320°NW
Pressure: 29.94"   Gusts: NA
Location:  45.0196°N, 69.2829°W
Report Text: KBGR 271953Z 32011KT 10SM BKN033 OVC050 M01/M05 A2994 RMK AO2 SLP142 T10061050 $
Loading
Personal Weather Stations






























Interactive Weather Map New forecast layout! Learn more

10-Day Weather Forecast

Advertisements
Track Severe Weather on mobile